GAP720 RPUV-RPLL
Flight info
| Callsign | GAP720 |
|---|---|
| Flight time | 0h 40m |
| Altitude | 28000 |
| Route | NGA W9 AKDAP AKDAP5R |
| Aircraft | A320/M-SDE3FGHIRWY/LB1 |
Departure
| Time | 2026-04-17 04:29 |
|---|---|
| Airport | Virac Airport (RPUV) |
Arrival
| Time | 2026-04-17 05:09 |
|---|---|
| Airport | Ninoy Aquino International Airport (RPLL) |
| Time | Latitude | Longitude | Altitude | Speed | Heading |
|---|---|---|---|---|---|
| 2026-04-17 04:23 | 13.57943 | 124.21175 | 114 ft | 0 kts | 181° |
| 2026-04-17 04:24 | 13.57928 | 124.21161 | 107 ft | 7 kts | 233° |
| 2026-04-17 04:24 | 13.57964 | 124.21136 | 109 ft | 7 kts | 30° |
| 2026-04-17 04:24 | 13.57997 | 124.21187 | 108 ft | 8 kts | 63° |
| 2026-04-17 04:25 | 13.58016 | 124.21218 | 108 ft | 2 kts | 34° |
| 2026-04-17 04:25 | 13.58049 | 124.21211 | 108 ft | 0 kts | 321° |
| 2026-04-17 04:25 | 13.58051 | 124.21209 | 108 ft | 2 kts | 323° |
| 2026-04-17 04:26 | 13.58068 | 124.21199 | 109 ft | 3 kts | 330° |
| 2026-04-17 04:26 | 13.58080 | 124.21169 | 110 ft | 10 kts | 247° |
| 2026-04-17 04:26 | 13.58063 | 124.21151 | 110 ft | 1 kts | 226° |
| 2026-04-17 04:26 | 13.58061 | 124.21147 | 110 ft | 0 kts | 237° |
| 2026-04-17 04:28 | 13.58023 | 124.21082 | 112 ft | 43 kts | 239° |
| 2026-04-17 04:28 | 13.57729 | 124.20544 | 111 ft | 127 kts | 242° |
| 2026-04-17 04:28 | 13.57206 | 124.19595 | 421 ft | 162 kts | 240° |
| 2026-04-17 04:29 | 13.56663 | 124.18595 | 1308 ft | 161 kts | 241° |
| 2026-04-17 04:29 | 13.56151 | 124.17566 | 2103 ft | 164 kts | 252° |
| 2026-04-17 04:29 | 13.56049 | 124.16332 | 2456 ft | 183 kts | 276° |
| 2026-04-17 04:29 | 13.56162 | 124.14974 | 2844 ft | 199 kts | 275° |
| 2026-04-17 04:30 | 13.56251 | 124.13485 | 3146 ft | 218 kts | 275° |
| 2026-04-17 04:30 | 13.56328 | 124.11845 | 3422 ft | 243 kts | 273° |
| 2026-04-17 04:30 | 13.56379 | 124.10024 | 3838 ft | 265 kts | 273° |
| 2026-04-17 04:30 | 13.56411 | 124.08109 | 4651 ft | 270 kts | 273° |
| 2026-04-17 04:31 | 13.56451 | 124.06167 | 5464 ft | 274 kts | 273° |
| 2026-04-17 04:31 | 13.56502 | 124.04189 | 6294 ft | 278 kts | 273° |
| 2026-04-17 04:31 | 13.56555 | 124.02192 | 7059 ft | 282 kts | 272° |
| 2026-04-17 04:31 | 13.56608 | 124.00152 | 7800 ft | 287 kts | 272° |
| 2026-04-17 04:32 | 13.56659 | 123.98106 | 8529 ft | 293 kts | 272° |
| 2026-04-17 04:32 | 13.56710 | 123.95997 | 9261 ft | 298 kts | 272° |
| 2026-04-17 04:32 | 13.56761 | 123.93850 | 9979 ft | 303 kts | 272° |
| 2026-04-17 04:32 | 13.56813 | 123.91620 | 10306 ft | 323 kts | 272° |
| 2026-04-17 04:33 | 13.56866 | 123.89266 | 10614 ft | 340 kts | 272° |
| 2026-04-17 04:33 | 13.56921 | 123.86814 | 11232 ft | 346 kts | 272° |
| 2026-04-17 04:33 | 13.56979 | 123.84329 | 11913 ft | 349 kts | 272° |
| 2026-04-17 04:33 | 13.57037 | 123.81827 | 12598 ft | 352 kts | 272° |
| 2026-04-17 04:34 | 13.57133 | 123.77622 | 13711 ft | 356 kts | 273° |
| 2026-04-17 04:34 | 13.57208 | 123.74198 | 14476 ft | 360 kts | 273° |
| 2026-04-17 04:34 | 13.57246 | 123.72505 | 14834 ft | 362 kts | 273° |
| 2026-04-17 04:35 | 13.57305 | 123.69890 | 15377 ft | 365 kts | 273° |
| 2026-04-17 04:35 | 13.57363 | 123.67267 | 15909 ft | 369 kts | 273° |
| 2026-04-17 04:35 | 13.57420 | 123.64622 | 16437 ft | 372 kts | 273° |
| 2026-04-17 04:35 | 13.57479 | 123.61950 | 16957 ft | 376 kts | 273° |
| 2026-04-17 04:36 | 13.57538 | 123.59296 | 17486 ft | 379 kts | 273° |
| 2026-04-17 04:36 | 13.57597 | 123.56573 | 18008 ft | 382 kts | 273° |
| 2026-04-17 04:36 | 13.57656 | 123.53824 | 18483 ft | 386 kts | 273° |
| 2026-04-17 04:36 | 13.57716 | 123.51052 | 18925 ft | 389 kts | 273° |
| 2026-04-17 04:37 | 13.57790 | 123.48197 | 18641 ft | 407 kts | 274° |
| 2026-04-17 04:37 | 13.57889 | 123.45339 | 19594 ft | 396 kts | 273° |
| 2026-04-17 04:37 | 13.57957 | 123.42513 | 20132 ft | 397 kts | 272° |
| 2026-04-17 04:37 | 13.58002 | 123.39669 | 20600 ft | 399 kts | 272° |
| 2026-04-17 04:38 | 13.58040 | 123.36809 | 21043 ft | 401 kts | 272° |
| 2026-04-17 04:38 | 13.58083 | 123.33937 | 21472 ft | 404 kts | 272° |
| 2026-04-17 04:38 | 13.58134 | 123.31040 | 21898 ft | 406 kts | 272° |
| 2026-04-17 04:38 | 13.58364 | 123.28142 | 22310 ft | 407 kts | 281° |
| 2026-04-17 04:39 | 13.59090 | 123.25323 | 22718 ft | 408 kts | 292° |
| 2026-04-17 04:39 | 13.60267 | 123.22664 | 23123 ft | 410 kts | 297° |
| 2026-04-17 04:39 | 13.61540 | 123.20027 | 23514 ft | 413 kts | 297° |
| 2026-04-17 04:39 | 13.62814 | 123.17375 | 23846 ft | 416 kts | 297° |
| 2026-04-17 04:40 | 13.64094 | 123.14697 | 24179 ft | 418 kts | 297° |
| 2026-04-17 04:40 | 13.65377 | 123.12006 | 24503 ft | 420 kts | 297° |
| 2026-04-17 04:40 | 13.66666 | 123.09303 | 24827 ft | 423 kts | 297° |
| 2026-04-17 04:40 | 13.67966 | 123.06576 | 25145 ft | 425 kts | 297° |
| 2026-04-17 04:41 | 13.69270 | 123.03839 | 25474 ft | 427 kts | 297° |
| 2026-04-17 04:41 | 13.70567 | 123.01119 | 25815 ft | 429 kts | 297° |
| 2026-04-17 04:41 | 13.71884 | 122.98358 | 26152 ft | 431 kts | 297° |
| 2026-04-17 04:41 | 13.73207 | 122.95582 | 26480 ft | 433 kts | 296° |
| 2026-04-17 04:42 | 13.74538 | 122.92786 | 26807 ft | 435 kts | 296° |
| 2026-04-17 04:42 | 13.75872 | 122.89985 | 27108 ft | 437 kts | 296° |
| 2026-04-17 04:42 | 13.77214 | 122.87168 | 27417 ft | 440 kts | 296° |
| 2026-04-17 04:42 | 13.78560 | 122.84341 | 27715 ft | 442 kts | 296° |
| 2026-04-17 04:43 | 13.79921 | 122.81476 | 27522 ft | 444 kts | 296° |
| 2026-04-17 04:43 | 13.81257 | 122.78668 | 27889 ft | 439 kts | 296° |
| 2026-04-17 04:43 | 13.82589 | 122.75859 | 27950 ft | 431 kts | 296° |
| 2026-04-17 04:43 | 13.83881 | 122.73135 | 27956 ft | 418 kts | 296° |
| 2026-04-17 04:44 | 13.85177 | 122.70404 | 27954 ft | 430 kts | 296° |
| 2026-04-17 04:44 | 13.86507 | 122.67605 | 27955 ft | 440 kts | 296° |
| 2026-04-17 04:44 | 13.87869 | 122.64738 | 27951 ft | 450 kts | 296° |
| 2026-04-17 04:44 | 13.89257 | 122.61816 | 27958 ft | 459 kts | 296° |
| 2026-04-17 04:45 | 13.90673 | 122.58833 | 27954 ft | 468 kts | 296° |
| 2026-04-17 04:45 | 13.92112 | 122.55798 | 27950 ft | 476 kts | 296° |
| 2026-04-17 04:45 | 13.93570 | 122.52716 | 27951 ft | 483 kts | 296° |
| 2026-04-17 04:45 | 13.95053 | 122.49583 | 27950 ft | 489 kts | 296° |
| 2026-04-17 04:46 | 13.96532 | 122.46462 | 27950 ft | 492 kts | 296° |
| 2026-04-17 04:46 | 13.98050 | 122.43259 | 27950 ft | 493 kts | 296° |
| 2026-04-17 04:46 | 13.99535 | 122.40124 | 27950 ft | 493 kts | 296° |
| 2026-04-17 04:46 | 14.01037 | 122.36950 | 27950 ft | 493 kts | 296° |
| 2026-04-17 04:47 | 14.02540 | 122.33774 | 27950 ft | 493 kts | 296° |
| 2026-04-17 04:47 | 14.04008 | 122.30674 | 27950 ft | 493 kts | 296° |
| 2026-04-17 04:47 | 14.05511 | 122.27492 | 27953 ft | 493 kts | 296° |
| 2026-04-17 04:47 | 14.07008 | 122.24314 | 27954 ft | 493 kts | 296° |
| 2026-04-17 04:48 | 14.08508 | 122.21126 | 27951 ft | 494 kts | 296° |
| 2026-04-17 04:48 | 14.10002 | 122.17949 | 27957 ft | 494 kts | 296° |
| 2026-04-17 04:48 | 14.11502 | 122.14768 | 27955 ft | 494 kts | 296° |
| 2026-04-17 04:48 | 14.13005 | 122.11585 | 27911 ft | 494 kts | 296° |
| 2026-04-17 04:49 | 14.14509 | 122.08398 | 27666 ft | 489 kts | 296° |
| 2026-04-17 04:49 | 14.15969 | 122.05297 | 27411 ft | 473 kts | 296° |
| 2026-04-17 04:49 | 14.17379 | 122.02295 | 27164 ft | 459 kts | 296° |
| 2026-04-17 04:49 | 14.18750 | 121.99375 | 26924 ft | 446 kts | 296° |
| 2026-04-17 04:50 | 14.20084 | 121.96536 | 26683 ft | 434 kts | 296° |
| 2026-04-17 04:50 | 14.21382 | 121.93774 | 26440 ft | 423 kts | 296° |
| 2026-04-17 04:50 | 14.22637 | 121.91074 | 26209 ft | 412 kts | 295° |
| 2026-04-17 04:50 | 14.23781 | 121.88451 | 25990 ft | 402 kts | 291° |
| 2026-04-17 04:51 | 14.24418 | 121.85683 | 25749 ft | 393 kts | 275° |
| 2026-04-17 04:51 | 14.24542 | 121.82892 | 25523 ft | 389 kts | 272° |
| 2026-04-17 04:51 | 14.24636 | 121.80117 | 25296 ft | 387 kts | 272° |
| 2026-04-17 04:51 | 14.24720 | 121.77351 | 25065 ft | 385 kts | 272° |
| 2026-04-17 04:52 | 14.24801 | 121.74593 | 24835 ft | 384 kts | 272° |
| 2026-04-17 04:52 | 14.24881 | 121.71853 | 24612 ft | 383 kts | 272° |
| 2026-04-17 04:52 | 14.24962 | 121.69112 | 24388 ft | 382 kts | 272° |
| 2026-04-17 04:52 | 14.25043 | 121.66359 | 23858 ft | 387 kts | 273° |
| 2026-04-17 04:53 | 14.25127 | 121.63572 | 23220 ft | 385 kts | 273° |
| 2026-04-17 04:53 | 14.25209 | 121.60842 | 22537 ft | 378 kts | 273° |
| 2026-04-17 04:53 | 14.25287 | 121.58149 | 21874 ft | 372 kts | 273° |
| 2026-04-17 04:55 | 14.25814 | 121.40309 | 16783 ft | 358 kts | 274° |
| 2026-04-17 04:55 | 14.25891 | 121.37709 | 16270 ft | 365 kts | 274° |
| 2026-04-17 04:55 | 14.25967 | 121.35086 | 15689 ft | 364 kts | 274° |
| 2026-04-17 04:56 | 14.26041 | 121.32472 | 15096 ft | 366 kts | 274° |
| 2026-04-17 04:56 | 14.26116 | 121.29843 | 14574 ft | 366 kts | 274° |
| 2026-04-17 04:56 | 14.26188 | 121.27247 | 14298 ft | 359 kts | 274° |
| 2026-04-17 04:56 | 14.26265 | 121.24689 | 13933 ft | 355 kts | 274° |
| 2026-04-17 04:57 | 14.26351 | 121.22179 | 13515 ft | 354 kts | 274° |
| 2026-04-17 04:57 | 14.26442 | 121.19653 | 13060 ft | 352 kts | 274° |
| 2026-04-17 04:57 | 14.26534 | 121.17139 | 12614 ft | 350 kts | 274° |
| 2026-04-17 04:57 | 14.26626 | 121.14635 | 12178 ft | 348 kts | 273° |
| 2026-04-17 04:58 | 14.26718 | 121.12149 | 11756 ft | 346 kts | 273° |
| 2026-04-17 04:58 | 14.26808 | 121.09679 | 11325 ft | 345 kts | 273° |
| 2026-04-17 04:58 | 14.26893 | 121.07238 | 11066 ft | 332 kts | 273° |
| 2026-04-17 04:58 | 14.26970 | 121.04934 | 10842 ft | 314 kts | 273° |
| 2026-04-17 04:59 | 14.27045 | 121.02709 | 10356 ft | 308 kts | 272° |
| 2026-04-17 04:59 | 14.27121 | 121.00517 | 9821 ft | 303 kts | 272° |
| 2026-04-17 04:59 | 14.27199 | 120.98350 | 9193 ft | 301 kts | 272° |
| 2026-04-17 04:59 | 14.27277 | 120.96212 | 8651 ft | 296 kts | 272° |
| 2026-04-17 05:00 | 14.27351 | 120.94158 | 8501 ft | 276 kts | 272° |
| 2026-04-17 05:00 | 14.27420 | 120.92245 | 8377 ft | 258 kts | 271° |
| 2026-04-17 05:00 | 14.27482 | 120.90455 | 8251 ft | 243 kts | 271° |
| 2026-04-17 05:00 | 14.27539 | 120.88787 | 8146 ft | 223 kts | 271° |
| 2026-04-17 05:01 | 14.27599 | 120.87246 | 8020 ft | 207 kts | 275° |
| 2026-04-17 05:01 | 14.27947 | 120.85848 | 7865 ft | 200 kts | 294° |
| 2026-04-17 05:01 | 14.28732 | 120.84633 | 7439 ft | 209 kts | 312° |
| 2026-04-17 05:01 | 14.29701 | 120.83489 | 7013 ft | 214 kts | 311° |
| 2026-04-17 05:02 | 14.30677 | 120.82329 | 6584 ft | 214 kts | 311° |
| 2026-04-17 05:02 | 14.31652 | 120.81169 | 6146 ft | 214 kts | 311° |
| 2026-04-17 05:02 | 14.32640 | 120.80045 | 5708 ft | 214 kts | 319° |
| 2026-04-17 05:02 | 14.33888 | 120.79230 | 5258 ft | 212 kts | 340° |
| 2026-04-17 05:03 | 14.35329 | 120.78890 | 4740 ft | 214 kts | 360° |
| 2026-04-17 05:03 | 14.36766 | 120.79080 | 4460 ft | 203 kts | 20° |
| 2026-04-17 05:03 | 14.38003 | 120.79701 | 4278 ft | 190 kts | 37° |
| 2026-04-17 05:03 | 14.38940 | 120.80614 | 4076 ft | 183 kts | 54° |
| 2026-04-17 05:04 | 14.39602 | 120.81714 | 3853 ft | 178 kts | 62° |
| 2026-04-17 05:04 | 14.40210 | 120.82804 | 3639 ft | 175 kts | 62° |
| 2026-04-17 05:04 | 14.40812 | 120.83884 | 3416 ft | 173 kts | 62° |
| 2026-04-17 05:04 | 14.41408 | 120.84955 | 3208 ft | 172 kts | 61° |
| 2026-04-17 05:05 | 14.42010 | 120.86036 | 2982 ft | 176 kts | 61° |
| 2026-04-17 05:05 | 14.42623 | 120.87137 | 2753 ft | 178 kts | 60° |
| 2026-04-17 05:05 | 14.43240 | 120.88246 | 2528 ft | 179 kts | 60° |
| 2026-04-17 05:05 | 14.43860 | 120.89360 | 2312 ft | 177 kts | 60° |
| 2026-04-17 05:06 | 14.44466 | 120.90447 | 2070 ft | 171 kts | 60° |
| 2026-04-17 05:06 | 14.45043 | 120.91485 | 1865 ft | 160 kts | 60° |
| 2026-04-17 05:06 | 14.45579 | 120.92448 | 1661 ft | 152 kts | 61° |
| 2026-04-17 05:06 | 14.46099 | 120.93382 | 1465 ft | 148 kts | 61° |
| 2026-04-17 05:07 | 14.46608 | 120.94297 | 1274 ft | 146 kts | 61° |
| 2026-04-17 05:07 | 14.47112 | 120.95204 | 1079 ft | 145 kts | 61° |
| 2026-04-17 05:07 | 14.47607 | 120.96098 | 909 ft | 147 kts | 62° |
| 2026-04-17 05:07 | 14.48120 | 120.97014 | 702 ft | 148 kts | 59° |
| 2026-04-17 05:08 | 14.48631 | 120.97926 | 565 ft | 146 kts | 60° |
| 2026-04-17 05:08 | 14.49136 | 120.98844 | 351 ft | 146 kts | 58° |
| 2026-04-17 05:08 | 14.49641 | 120.99749 | 198 ft | 145 kts | 59° |
| 2026-04-17 05:08 | 14.50133 | 121.00633 | 61 ft | 133 kts | 58° |
| 2026-04-17 05:09 | 14.50533 | 121.01309 | 62 ft | 87 kts | 65° |
| 2026-04-17 05:09 | 14.50762 | 121.01754 | 65 ft | 56 kts | 61° |
| 2026-04-17 05:09 | 14.50908 | 121.02021 | 66 ft | 8 kts | 51° |
| 2026-04-17 05:09 | 14.50951 | 121.02006 | 65 ft | 7 kts | 315° |
| 2026-04-17 05:10 | 14.50983 | 121.01973 | 64 ft | 6 kts | 315° |
| 2026-04-17 05:10 | 14.51008 | 121.01940 | 62 ft | 5 kts | 285° |
| 2026-04-17 05:10 | 14.50996 | 121.01905 | 68 ft | 9 kts | 238° |
| 2026-04-17 05:10 | 14.50928 | 121.01780 | 58 ft | 26 kts | 243° |
| 2026-04-17 05:11 | 14.50890 | 121.01704 | 62 ft | 0 kts | 243° |
| 2026-04-17 05:11 | 14.50886 | 121.01693 | 64 ft | 2 kts | 250° |
| 2026-04-17 05:11 | 14.50885 | 121.01682 | 63 ft | 4 kts | 274° |
| 2026-04-17 05:11 | 14.50932 | 121.01627 | 64 ft | 13 kts | 315° |
| 2026-04-17 05:12 | 14.50992 | 121.01564 | 61 ft | 11 kts | 314° |
| 2026-04-17 05:12 | 14.51018 | 121.01525 | 63 ft | 4 kts | 259° |
| 2026-04-17 05:12 | 14.51004 | 121.01505 | 66 ft | 3 kts | 234° |
| 2026-04-17 05:12 | 14.50994 | 121.01473 | 66 ft | 6 kts | 254° |
| 2026-04-17 05:13 | 14.50987 | 121.01447 | 66 ft | 0 kts | 254° |